createdAt,value
2018-11-23T00:06:44.544Z,19.93
2018-11-23T00:16:47.883Z,20.13
2018-11-23T00:26:51.250Z,20.27
2018-11-23T00:36:54.470Z,19.00
2018-11-23T00:46:57.727Z,20.50
2018-11-23T00:57:00.942Z,18.73
2018-11-23T01:07:05.494Z,19.80
2018-11-23T01:17:08.730Z,18.43
2018-11-23T01:27:11.982Z,18.70
2018-11-23T01:37:15.272Z,19.10
2018-11-23T01:47:20.413Z,18.20
2018-11-23T01:57:23.651Z,17.83
2018-11-23T02:07:26.862Z,18.63
2018-11-23T02:17:30.061Z,22.00
2018-11-23T02:27:33.250Z,22.73
2018-11-23T02:37:36.437Z,23.77
2018-11-23T02:47:39.850Z,23.23
2018-11-23T02:57:43.096Z,22.60
2018-11-23T03:07:46.340Z,23.07
2018-11-23T03:17:49.961Z,21.90
2018-11-23T03:27:53.337Z,22.03
2018-11-23T03:37:56.726Z,21.77
2018-11-23T03:48:00.110Z,18.47
2018-11-23T03:58:03.335Z,18.97
2018-11-23T04:08:06.569Z,20.20
2018-11-23T04:18:09.793Z,19.97
2018-11-23T04:28:13.027Z,17.73
2018-11-23T04:38:16.277Z,16.83
2018-11-23T04:48:19.525Z,19.30
2018-11-23T04:58:22.741Z,18.03
2018-11-23T05:08:25.989Z,18.37
2018-11-23T05:18:29.205Z,19.57
2018-11-23T05:28:32.493Z,21.77
2018-11-23T05:38:35.818Z,22.77
2018-11-23T05:48:39.077Z,24.53
2018-11-23T05:58:42.335Z,22.07
2018-11-23T06:08:46.069Z,20.70
2018-11-23T06:18:49.517Z,22.77
2018-11-23T06:28:53.025Z,22.97
2018-11-23T06:38:56.636Z,22.07
2018-11-23T06:49:00.134Z,25.80
2018-11-23T06:59:04.136Z,24.03
2018-11-23T07:09:08.584Z,23.90
2018-11-23T07:19:12.237Z,23.97
2018-11-23T07:29:16.581Z,25.20
2018-11-23T07:39:31.353Z,25.37
2018-11-23T07:49:34.625Z,25.83
2018-11-23T07:59:37.920Z,26.93
2018-11-23T08:09:41.671Z,24.67
2018-11-23T08:19:47.490Z,25.80
2018-11-23T08:29:48.230Z,23.87
2018-11-23T08:39:51.549Z,24.60
2018-11-23T08:49:54.855Z,22.93
2018-11-23T08:59:58.111Z,23.73
2018-11-23T09:10:01.667Z,23.13
2018-11-23T09:20:06.422Z,22.67
2018-11-23T09:30:17.374Z,21.97
2018-11-23T09:40:22.013Z,21.20
2018-11-23T09:50:25.949Z,20.13
2018-11-23T10:00:30.682Z,20.57
2018-11-23T10:10:34.164Z,21.87
2018-11-23T10:20:37.481Z,22.07
2018-11-23T10:30:40.810Z,21.83
2018-11-23T10:40:44.033Z,21.97
2018-11-23T10:50:47.301Z,21.70
2018-11-23T11:02:58.289Z,21.10
2018-11-23T11:13:01.525Z,22.33
2018-11-23T11:23:04.857Z,23.63
2018-11-23T11:33:08.177Z,19.80
2018-11-23T11:43:11.429Z,19.27
2018-11-23T11:53:14.705Z,20.13
2018-11-23T12:03:18.209Z,21.10
2018-11-23T12:13:21.429Z,20.23
2018-11-23T12:23:24.716Z,20.93
2018-11-23T12:33:28.034Z,19.47
2018-11-23T12:43:31.421Z,18.70
2018-11-23T12:53:34.710Z,18.47
2018-11-23T13:03:38.086Z,17.63
2018-11-23T13:13:41.405Z,18.70
2018-11-23T13:23:44.747Z,19.17
2018-11-23T13:33:48.073Z,18.00
2018-11-23T13:43:51.625Z,18.77
2018-11-23T13:53:55.080Z,18.17
2018-11-23T14:03:58.478Z,18.93
2018-11-23T14:14:01.824Z,18.60
2018-11-23T14:24:05.486Z,18.43
2018-11-23T14:34:08.780Z,19.40
2018-11-23T14:44:12.122Z,20.30
2018-11-23T14:54:15.348Z,19.97
2018-11-23T15:04:18.825Z,22.30
2018-11-23T15:14:22.125Z,24.10
2018-11-23T15:24:25.325Z,22.90
2018-11-23T15:34:28.566Z,24.33
2018-11-23T15:44:31.865Z,24.20
2018-11-23T15:54:35.226Z,23.93
2018-11-23T16:04:39.418Z,23.90
2018-11-23T16:14:41.935Z,23.40
2018-11-23T16:24:45.277Z,23.80
2018-11-23T16:34:48.586Z,23.80
2018-11-23T16:44:51.789Z,25.20
2018-11-23T16:54:55.035Z,24.83
2018-11-23T17:04:58.270Z,23.70
2018-11-23T17:15:01.478Z,21.60
2018-11-23T17:25:05.693Z,21.23
2018-11-23T17:35:09.580Z,23.47
2018-11-23T17:45:17.509Z,21.63
2018-11-23T17:55:20.736Z,22.70
2018-11-23T18:05:24.990Z,24.00
2018-11-23T18:15:30.052Z,22.93
2018-11-23T18:25:35.164Z,22.67
2018-11-23T18:35:38.541Z,21.73
2018-11-23T18:45:41.877Z,21.87
2018-11-23T18:55:45.240Z,24.33
2018-11-23T19:05:48.565Z,22.27
2018-11-23T19:15:51.909Z,23.53
2018-11-23T19:25:55.249Z,22.97
2018-11-23T19:35:58.602Z,23.67
2018-11-23T19:46:02.954Z,22.37
2018-11-23T19:56:06.206Z,23.40
2018-11-23T20:06:09.576Z,24.10
2018-11-23T20:16:12.896Z,24.67
2018-11-23T20:26:16.237Z,23.23
2018-11-23T20:36:19.597Z,25.37
2018-11-23T20:46:22.938Z,25.17
2018-11-23T20:56:26.927Z,24.77
2018-11-23T21:06:30.234Z,30.47
2018-11-23T21:16:33.573Z,24.23
2018-11-23T21:26:36.909Z,24.07
2018-11-23T21:36:40.257Z,24.53
2018-11-23T21:46:43.626Z,24.93
2018-11-23T21:56:46.957Z,23.77
2018-11-23T22:06:50.301Z,23.77
2018-11-23T22:16:54.442Z,24.70
2018-11-23T22:26:57.671Z,24.87
2018-11-23T22:37:00.884Z,24.43
2018-11-23T22:47:04.121Z,24.83
2018-11-23T22:57:11.588Z,24.00
2018-11-23T23:07:10.666Z,22.97
2018-11-23T23:17:13.883Z,24.17
2018-11-23T23:27:17.112Z,23.73
2018-11-23T23:37:20.329Z,24.47
2018-11-23T23:47:23.566Z,23.43
2018-11-23T23:57:26.813Z,23.53
